Time;durP1;ratioP1;P1;durP2;ratioP2;P2;SDS_P1;SDS_P2;PMS_P1;PMS_P2;Temp;Humidity;BMP_temperature;BMP_pressure;BME280_temperature;BME280_humidity;BME280_pressure;Samples;Min_cycle;Max_cycle;Signal;HPM_P1;HPM_P2
2021/05/19 00:01:29;;;;;;;1.20;1.10;;;;;;;9.89;73.58;100981.41;5077883;28;20040;-47
2021/05/19 00:03:56;;;;;;;1.58;1.00;;;;;;;9.86;73.73;100975.75;5092915;28;20122;-45
2021/05/19 00:06:23;;;;;;;1.92;1.13;;;;;;;9.89;73.53;100986.94;5099688;28;20130;-47
2021/05/19 00:08:50;;;;;;;1.30;0.80;;;;;;;9.91;73.66;100972.78;5099393;28;20074;-46
2021/05/19 00:11:17;;;;;;;1.10;0.98;;;;;;;9.89;73.73;100980.59;5092809;28;20127;-47
2021/05/19 00:13:44;;;;;;;1.10;0.80;;;;;;;9.90;73.58;100983.03;5107827;28;20378;-45
2021/05/19 00:16:11;;;;;;;1.48;0.90;;;;;;;9.88;73.76;100985.31;5089060;28;20105;-47
2021/05/19 00:18:39;;;;;;;2.10;1.65;;;;;;;9.83;73.87;100982.75;5092305;28;20043;-49
2021/05/19 00:21:06;;;;;;;2.38;1.00;;;;;;;9.81;73.86;100990.56;5103371;28;20088;-44
2021/05/19 00:23:34;;;;;;;2.20;1.10;;;;;;;9.75;73.96;100992.72;5112824;28;20050;-46
2021/05/19 00:26:01;;;;;;;3.70;1.42;;;;;;;9.73;74.05;100991.44;5103185;28;20105;-47
2021/05/19 00:28:28;;;;;;;3.00;1.20;;;;;;;9.67;74.20;100998.28;5098185;28;20122;-44
2021/05/19 00:30:57;;;;;;;2.08;1.15;;;;;;;9.64;74.28;100996.19;5109136;28;20062;-45
2021/05/19 00:33:24;;;;;;;1.45;1.25;;;;;;;9.59;74.45;100999.13;5077524;28;20111;-44
2021/05/19 00:35:52;;;;;;;2.17;1.42;;;;;;;9.56;74.36;100995.09;5090237;28;20040;-48
2021/05/19 00:38:19;;;;;;;2.40;1.45;;;;;;;9.56;74.38;101002.56;5095813;28;20127;-48
2021/05/19 00:40:47;;;;;;;1.83;1.60;;;;;;;9.53;74.51;101006.00;5102955;28;20121;-49
2021/05/19 00:43:15;;;;;;;3.00;1.70;;;;;;;9.51;74.40;101005.50;5107087;28;20079;-48
2021/05/19 00:45:42;;;;;;;3.47;1.70;;;;;;;9.55;74.14;101010.06;5110131;28;20096;-47
2021/05/19 00:48:11;;;;;;;3.60;1.60;;;;;;;9.53;74.25;101008.78;5101898;28;20098;-47
2021/05/19 00:50:39;;;;;;;3.97;2.00;;;;;;;9.52;74.14;101004.38;5078666;28;20048;-44
2021/05/19 00:53:06;;;;;;;5.60;2.45;;;;;;;9.50;74.11;101004.72;5084875;28;20131;-44
2021/05/19 00:55:34;;;;;;;2.55;1.83;;;;;;;9.48;74.21;101009.75;5101250;28;20048;-44
2021/05/19 00:58:01;;;;;;;3.58;2.33;;;;;;;9.44;74.48;101010.75;5094748;28;20515;-46
2021/05/19 01:00:28;;;;;;;2.78;1.90;;;;;;;9.35;74.77;101005.25;5111082;28;20039;-47
2021/05/19 01:02:55;;;;;;;3.58;1.85;;;;;;;9.32;74.99;101016.16;5104068;28;20063;-47
2021/05/19 01:05:41;;;;;;;2.08;1.52;;;;;;;9.24;75.21;101005.97;5098687;28;20040;-50
2021/05/19 01:10:54;;;;;;;3.80;2.15;;;;;;;9.27;75.20;101013.56;5071270;28;20052;-44
2021/05/19 01:13:22;;;;;;;3.15;1.70;;;;;;;9.21;75.30;101009.38;5088716;28;20138;-50
2021/05/19 01:15:49;;;;;;;2.88;1.58;;;;;;;9.18;75.17;101017.19;5089806;28;20059;-46
2021/05/19 01:18:16;;;;;;;4.22;1.70;;;;;;;9.19;75.35;101012.44;5091109;28;20067;-47
2021/05/19 01:20:43;;;;;;;2.55;2.00;;;;;;;9.17;75.19;101015.56;5098276;28;20458;-50
2021/05/19 01:23:10;;;;;;;4.82;1.85;;;;;;;9.15;75.33;101017.84;5089512;28;20052;-46
2021/05/19 01:25:37;;;;;;;1.85;1.60;;;;;;;9.11;75.38;101027.09;5091869;28;20470;-51
2021/05/19 01:28:05;;;;;;;2.33;1.90;;;;;;;9.07;75.29;101021.44;5083497;28;20037;-48
2021/05/19 01:30:34;;;;;;;3.78;2.08;;;;;;;9.02;75.57;101026.31;5071869;28;20473;-49
2021/05/19 01:33:02;;;;;;;2.40;1.60;;;;;;;8.99;75.65;101013.16;5071192;28;20094;-49
2021/05/19 01:35:32;;;;;;;2.88;1.70;;;;;;;8.98;75.47;101014.28;5086524;28;20097;-48
2021/05/19 01:37:59;;;;;;;4.65;2.65;;;;;;;8.89;75.72;101025.38;5104489;28;20044;-46
2021/05/19 01:40:27;;;;;;;2.30;1.58;;;;;;;8.86;75.68;101031.53;5085001;28;20052;-47
2021/05/19 01:42:55;;;;;;;1.92;1.42;;;;;;;8.87;75.76;101037.88;5105159;28;20040;-51
2021/05/19 01:45:25;;;;;;;2.90;1.60;;;;;;;8.86;75.67;101028.78;5098841;28;20072;-47
2021/05/19 01:47:54;;;;;;;4.40;1.70;;;;;;;8.84;75.58;101021.97;5098006;28;20063;-44
2021/05/19 01:50:27;;;;;;;3.88;1.70;;;;;;;8.79;75.68;101031.22;5090989;28;20048;-45
2021/05/19 01:52:59;;;;;;;3.28;2.17;;;;;;;8.79;75.86;101033.19;5101330;28;20130;-48
2021/05/19 01:55:27;;;;;;;2.70;2.00;;;;;;;8.75;75.80;101038.53;5098107;28;20131;-47
2021/05/19 01:57:55;;;;;;;5.90;2.08;;;;;;;8.72;75.96;101049.41;5095527;28;20051;-48
2021/05/19 02:00:26;;;;;;;4.78;1.77;;;;;;;8.68;75.96;101046.50;5094458;28;20135;-46
2021/05/19 02:02:55;;;;;;;3.90;1.90;;;;;;;8.70;75.99;101041.47;5093967;28;20072;-46
2021/05/19 02:05:24;;;;;;;7.30;3.15;;;;;;;8.63;75.95;101041.13;5103182;28;20039;-48
2021/05/19 02:07:52;;;;;;;3.00;1.70;;;;;;;8.61;76.15;101050.84;5102827;28;20101;-44
2021/05/19 02:10:20;;;;;;;5.32;2.17;;;;;;;8.61;76.05;101046.16;5071092;28;20053;-45
2021/05/19 02:12:47;;;;;;;3.53;1.70;;;;;;;8.58;76.07;101052.31;5103748;28;20072;-49
2021/05/19 02:15:18;;;;;;;5.28;1.83;;;;;;;8.51;76.25;101043.72;5090151;28;20585;-47
2021/05/19 02:17:48;;;;;;;4.13;1.90;;;;;;;8.49;76.33;101046.81;5094549;28;20054;-44
2021/05/19 02:20:18;;;;;;;6.47;2.75;;;;;;;8.46;76.35;101043.88;5108896;28;20063;-45
2021/05/19 02:22:47;;;;;;;4.05;1.70;;;;;;;8.46;76.28;101049.41;5099430;28;20088;-44
2021/05/19 02:25:15;;;;;;;6.28;1.58;;;;;;;8.46;75.85;101046.66;5098941;28;20071;-44
2021/05/19 02:27:44;;;;;;;4.47;1.95;;;;;;;8.41;76.07;101047.63;5075819;28;20102;-46
2021/05/19 02:30:16;;;;;;;4.10;1.98;;;;;;;8.40;76.09;101051.50;5099970;28;20040;-45
2021/05/19 02:32:44;;;;;;;6.32;2.15;;;;;;;8.40;76.13;101053.44;5106443;28;20073;-47
2021/05/19 02:35:11;;;;;;;6.78;2.08;;;;;;;8.38;76.04;101052.97;5100052;28;20123;-44
2021/05/19 02:37:40;;;;;;;3.35;1.63;;;;;;;8.35;76.23;101045.34;5114409;28;20055;-48
2021/05/19 02:40:10;;;;;;;8.43;2.35;;;;;;;8.35;76.13;101065.47;5098648;28;20083;-46
2021/05/19 02:42:38;;;;;;;3.85;1.98;;;;;;;8.32;76.01;101059.75;5075734;28;20131;-46
2021/05/19 02:45:07;;;;;;;4.40;2.15;;;;;;;8.31;76.10;101058.16;5100321;28;20044;-45
2021/05/19 02:47:34;;;;;;;6.53;2.20;;;;;;;8.32;75.84;101060.59;5113324;28;20104;-44
2021/05/19 02:50:05;;;;;;;4.97;1.98;;;;;;;8.22;76.23;101073.84;5084552;28;20050;-46
2021/05/19 02:52:32;;;;;;;7.00;2.33;;;;;;;8.14;76.53;101071.88;5112304;28;20055;-46
2021/05/19 02:54:59;;;;;;;6.18;2.08;;;;;;;8.11;76.67;101075.25;5101129;28;20817;-46
2021/05/19 02:57:26;;;;;;;6.07;2.60;;;;;;;8.10;76.58;101068.16;5102749;28;20079;-45
2021/05/19 02:59:53;;;;;;;5.97;1.80;;;;;;;8.10;76.73;101071.69;5102584;28;20473;-44
2021/05/19 03:02:20;;;;;;;4.03;1.55;;;;;;;8.11;76.50;101075.25;5107544;28;20040;-48
2021/05/19 03:04:47;;;;;;;4.13;1.90;;;;;;;8.12;76.25;101074.16;5109353;28;20090;-46
2021/05/19 03:07:14;;;;;;;3.00;2.20;;;;;;;8.08;76.29;101075.91;5073998;28;20135;-44
2021/05/19 03:09:41;;;;;;;4.68;3.00;;;;;;;8.08;76.17;101081.41;5103188;28;20083;-50
2021/05/19 03:12:08;;;;;;;2.85;1.65;;;;;;;8.06;76.23;101083.69;5075312;28;20048;-43
2021/05/19 03:14:35;;;;;;;4.80;1.60;;;;;;;8.04;76.33;101075.75;5109006;28;20126;-46
2021/05/19 03:17:02;;;;;;;4.82;2.88;;;;;;;7.99;76.12;101071.19;5101105;28;20101;-45
2021/05/19 03:19:29;;;;;;;4.78;1.73;;;;;;;7.91;76.33;101077.50;5093887;28;20083;-44
2021/05/19 03:21:56;;;;;;;3.22;2.03;;;;;;;7.91;76.57;101079.44;5090741;28;20050;-47
2021/05/19 03:24:23;;;;;;;6.72;2.17;;;;;;;7.90;76.52;101081.38;5087748;28;20048;-45
2021/05/19 03:26:52;;;;;;;2.22;1.60;;;;;;;7.85;76.41;101072.44;5113410;28;20059;-47
2021/05/19 03:29:19;;;;;;;3.50;1.92;;;;;;;7.81;76.42;101082.50;5107697;28;20497;-48
2021/05/19 03:31:46;;;;;;;4.38;1.50;;;;;;;7.81;76.71;101094.31;5092439;28;20102;-46
2021/05/19 03:34:13;;;;;;;6.03;2.10;;;;;;;7.80;76.59;101087.19;5092571;28;20476;-47
2021/05/19 03:36:40;;;;;;;3.80;1.88;;;;;;;7.77;76.78;101095.25;5111725;28;20071;-44
2021/05/19 03:39:09;;;;;;;4.88;1.83;;;;;;;7.73;76.84;101102.56;5104126;28;20659;-47
2021/05/19 03:41:39;;;;;;;4.88;1.83;;;;;;;7.68;76.60;101111.75;5103860;28;20083;-47
2021/05/19 03:44:08;;;;;;;6.88;1.80;;;;;;;7.66;76.71;101108.50;5111868;28;20134;-44
2021/05/19 03:46:35;;;;;;;3.85;2.15;;;;;;;7.61;76.87;101113.34;5112708;28;20043;-46
2021/05/19 03:49:04;;;;;;;3.22;1.70;;;;;;;7.57;76.70;101112.38;5102968;28;20086;-44
2021/05/19 03:51:33;;;;;;;6.65;2.10;;;;;;;7.58;76.70;101117.53;5099528;28;20043;-44
2021/05/19 03:54:00;;;;;;;1.45;1.35;;;;;;;7.53;76.83;101114.94;5112431;28;20058;-45
2021/05/19 03:56:27;;;;;;;3.00;1.95;;;;;;;7.49;76.70;101119.47;5100652;28;20107;-45
2021/05/19 03:58:54;;;;;;;6.28;1.88;;;;;;;7.51;76.89;101117.19;5093109;28;20048;-46
2021/05/19 04:01:21;;;;;;;4.95;2.25;;;;;;;7.49;76.81;101124.97;5097139;28;20562;-44
2021/05/19 04:03:51;;;;;;;6.28;1.85;;;;;;;7.43;77.01;101126.22;5100387;28;20039;-44
2021/05/19 04:06:24;;;;;;;6.10;2.65;;;;;;;7.34;77.50;101117.06;5108316;28;20163;-46
2021/05/19 04:08:56;;;;;;;5.50;1.65;;;;;;;7.32;77.36;101111.91;5109561;28;20096;-44
2021/05/19 04:11:23;;;;;;;3.08;1.55;;;;;;;7.36;77.41;101125.81;5112260;28;20063;-44
2021/05/19 04:13:54;;;;;;;4.40;2.13;;;;;;;7.37;77.24;101124.72;5090152;28;20052;-45
2021/05/19 04:16:20;;;;;;;4.30;1.63;;;;;;;7.32;77.43;101125.66;5087297;28;20102;-46
2021/05/19 04:18:47;;;;;;;3.83;1.95;;;;;;;7.31;77.47;101131.47;5100423;28;20127;-43
2021/05/19 04:21:14;;;;;;;6.90;2.10;;;;;;;7.32;77.39;101130.34;5112006;28;20047;-45
2021/05/19 04:23:41;;;;;;;8.45;2.38;;;;;;;7.39;77.19;101136.22;5110857;28;20090;-44
2021/05/19 04:26:08;;;;;;;3.22;1.73;;;;;;;7.39;77.25;101141.72;5112756;28;20075;-44
2021/05/19 04:28:35;;;;;;;6.22;1.75;;;;;;;7.34;77.20;101144.63;5109075;28;20044;-44
2021/05/19 04:31:03;;;;;;;3.65;1.48;;;;;;;7.28;77.57;101141.16;5082980;28;20089;-46
2021/05/19 04:33:29;;;;;;;4.85;1.60;;;;;;;7.26;77.77;101145.38;5082419;28;20421;-43
2021/05/19 04:35:56;;;;;;;7.18;2.00;;;;;;;7.17;78.05;101150.03;5088519;28;20138;-44
2021/05/19 04:38:23;;;;;;;4.70;1.52;;;;;;;7.17;77.69;101147.25;5099687;28;20075;-44
2021/05/19 04:40:52;;;;;;;3.97;1.67;;;;;;;7.23;77.98;101146.81;5082917;28;20047;-43
2021/05/19 04:43:19;;;;;;;5.32;2.35;;;;;;;7.26;77.53;101148.13;5098549;28;20176;-45
2021/05/19 04:45:46;;;;;;;4.28;2.05;;;;;;;7.21;77.74;101151.00;5102542;28;20040;-44
2021/05/19 04:48:16;;;;;;;6.25;1.90;;;;;;;7.24;77.52;101151.19;5090752;28;20118;-44
2021/05/19 04:50:44;;;;;;;2.35;1.80;;;;;;;7.25;77.63;101158.31;5101911;28;20063;-51
2021/05/19 04:53:11;;;;;;;5.75;1.88;;;;;;;7.22;77.71;101152.66;5086981;28;20040;-44
2021/05/19 04:55:39;;;;;;;7.28;1.80;;;;;;;7.18;77.79;101155.19;5091820;28;20048;-44
2021/05/19 04:58:06;;;;;;;4.60;2.13;;;;;;;7.15;77.59;101163.25;5112448;28;20051;-44
2021/05/19 05:00:36;;;;;;;2.78;1.83;;;;;;;7.16;77.54;101159.38;5111180;28;20043;-44
2021/05/19 05:03:04;;;;;;;9.93;2.28;;;;;;;7.18;77.57;101159.88;5104860;28;20039;-44
2021/05/19 05:05:31;;;;;;;6.47;1.73;;;;;;;7.12;77.97;101152.91;5090795;28;20068;-44
2021/05/19 05:07:58;;;;;;;5.50;1.77;;;;;;;7.09;77.88;101153.53;5091445;28;20048;-44
2021/05/19 05:10:25;;;;;;;3.60;1.80;;;;;;;7.17;77.99;101161.03;5099250;28;20466;-44
2021/05/19 05:12:52;;;;;;;7.00;1.92;;;;;;;7.19;78.03;101161.53;5102242;28;20070;-44
2021/05/19 05:15:21;;;;;;;4.75;1.75;;;;;;;7.24;77.59;101166.91;5091839;28;20056;-43
2021/05/19 05:17:48;;;;;;;2.83;1.58;;;;;;;7.27;77.56;101163.53;5097484;28;20443;-44
2021/05/19 05:20:15;;;;;;;5.25;1.85;;;;;;;7.25;77.83;101179.56;5110799;28;20039;-44
2021/05/19 05:22:42;;;;;;;9.50;2.10;;;;;;;7.23;77.84;101176.28;5080708;28;20052;-46
2021/05/19 05:25:10;;;;;;;5.72;1.45;;;;;;;7.25;77.76;101169.34;5071134;28;20076;-43
2021/05/19 05:27:36;;;;;;;3.85;1.40;;;;;;;7.30;77.88;101171.16;5075871;28;20040;-43
2021/05/19 05:30:04;;;;;;;7.63;1.63;;;;;;;7.28;77.82;101187.19;5107635;28;20055;-44
2021/05/19 05:32:31;;;;;;;11.18;2.25;;;;;;;7.28;77.89;101189.97;5103603;28;20053;-44
2021/05/19 05:34:58;;;;;;;5.25;1.63;;;;;;;7.30;78.24;101193.19;5110434;28;20052;-44
2021/05/19 05:37:25;;;;;;;6.25;1.60;;;;;;;7.37;77.87;101193.56;5110568;28;20036;-44
2021/05/19 05:39:52;;;;;;;4.43;1.80;;;;;;;7.44;78.10;101201.41;5083474;28;20117;-44
2021/05/19 05:42:20;;;;;;;4.90;1.40;;;;;;;7.46;77.79;101201.91;5092888;28;20048;-44
2021/05/19 05:44:47;;;;;;;7.22;1.77;;;;;;;7.47;78.03;101195.25;5094983;28;20550;-44
2021/05/19 05:47:14;;;;;;;7.13;1.58;;;;;;;7.52;78.12;101198.69;5115104;28;20075;-45
2021/05/19 05:49:41;;;;;;;3.67;1.40;;;;;;;7.55;78.16;101206.34;5110734;28;20048;-46
2021/05/19 05:52:08;;;;;;;4.80;1.50;;;;;;;7.58;78.12;101208.47;5114603;28;20125;-45
2021/05/19 05:54:35;;;;;;;6.85;2.08;;;;;;;7.57;78.35;101217.06;5093813;28;20101;-47
2021/05/19 05:57:02;;;;;;;6.57;1.50;;;;;;;7.62;78.35;101217.75;5099064;28;20550;-43
2021/05/19 05:59:30;;;;;;;5.47;2.22;;;;;;;7.67;78.28;101212.13;5115598;28;20052;-44
2021/05/19 06:01:57;;;;;;;11.32;1.67;;;;;;;7.69;78.31;101211.78;5102520;28;20118;-44
2021/05/19 06:04:24;;;;;;;5.30;2.08;;;;;;;7.73;78.39;101213.59;5102788;28;20122;-46
2021/05/19 06:06:51;;;;;;;5.97;1.52;;;;;;;7.81;78.11;101225.81;5114644;28;20054;-44
2021/05/19 06:09:18;;;;;;;5.75;1.60;;;;;;;7.84;78.39;101216.91;5114308;28;20043;-44
2021/05/19 06:11:45;;;;;;;3.72;1.45;;;;;;;7.88;78.32;101218.72;5105958;28;20439;-44
2021/05/19 06:14:12;;;;;;;10.23;2.45;;;;;;;7.92;78.33;101216.13;5092978;28;20048;-47
2021/05/19 06:16:39;;;;;;;8.50;1.58;;;;;;;7.98;78.08;101223.97;5091116;28;20093;-47
2021/05/19 06:19:06;;;;;;;3.83;1.73;;;;;;;8.03;78.21;101223.00;5092917;28;20398;-44
2021/05/19 06:21:33;;;;;;;7.25;2.33;;;;;;;8.09;78.27;101220.94;5100028;28;20398;-47
2021/05/19 06:24:01;;;;;;;5.55;2.10;;;;;;;8.14;78.33;101229.88;5095654;28;20396;-44
2021/05/19 06:26:28;;;;;;;6.55;2.08;;;;;;;8.16;78.08;101226.78;5092451;28;20048;-44
2021/05/19 06:28:55;;;;;;;10.38;3.05;;;;;;;8.22;78.35;101228.28;5098856;28;20497;-44
2021/05/19 06:31:22;;;;;;;3.97;1.80;;;;;;;8.27;78.14;101239.22;5097549;28;20534;-46
2021/05/19 06:33:48;;;;;;;7.13;2.10;;;;;;;8.28;78.35;101238.09;5098373;28;20097;-46
2021/05/19 06:36:22;;;;;;;7.00;1.50;;;;;;;8.25;78.36;101239.50;5071959;28;20123;-49
2021/05/19 06:38:49;;;;;;;5.63;1.52;;;;;;;8.27;78.50;101241.97;5082005;28;20438;-43
2021/05/19 06:41:16;;;;;;;14.30;4.07;;;;;;;8.29;78.59;101240.53;5095822;28;20088;-44
2021/05/19 06:43:45;;;;;;;5.03;1.75;;;;;;;8.37;78.67;101245.25;5098040;28;20070;-45
2021/05/19 06:46:12;;;;;;;5.03;1.77;;;;;;;8.42;78.62;101247.06;5087518;28;20131;-46
2021/05/19 06:48:39;;;;;;;6.07;2.08;;;;;;;8.51;78.39;101245.16;5072402;28;20059;-47
2021/05/19 06:51:06;;;;;;;8.57;2.38;;;;;;;8.61;78.42;101250.38;5107801;28;20067;-43
2021/05/19 06:53:35;;;;;;;10.27;1.88;;;;;;;8.71;78.36;101257.56;5104005;28;20073;-44
2021/05/19 06:56:02;;;;;;;7.50;3.45;;;;;;;8.75;78.55;101253.84;5098391;28;20508;-44
2021/05/19 06:58:29;;;;;;;2.97;1.40;;;;;;;8.83;78.42;101263.28;5100957;28;20092;-47
2021/05/19 07:00:56;;;;;;;5.75;1.75;;;;;;;8.90;78.39;101263.63;5102915;28;20143;-48
2021/05/19 07:03:23;;;;;;;5.32;1.52;;;;;;;8.98;78.45;101260.88;5086364;28;20080;-44
2021/05/19 07:05:50;;;;;;;11.93;4.22;;;;;;;9.06;78.54;101262.03;5086685;28;20040;-46
2021/05/19 07:08:21;;;;;;;6.25;1.75;;;;;;;9.16;78.57;101262.53;5101798;28;20043;-49
2021/05/19 07:10:47;;;;;;;5.03;1.80;;;;;;;9.22;78.27;101268.72;5092106;28;20056;-47
2021/05/19 07:13:18;;;;;;;5.22;1.63;;;;;;;9.33;78.52;101266.44;5084244;28;20105;-46
2021/05/19 07:15:52;;;;;;;;;;;;;;;9.40;78.70;101272.31;5082553;28;20053;-47
2021/05/19 07:18:20;;;;;;;10.18;2.90;;;;;;;9.50;78.61;101260.94;5094798;28;19986;-51
2021/05/19 07:20:48;;;;;;;3.38;1.70;;;;;;;9.59;78.87;101253.44;5092514;28;20051;-51
2021/05/19 07:23:15;;;;;;;11.73;3.47;;;;;;;9.66;79.13;101268.41;5074881;28;20102;-46
2021/05/19 07:25:45;;;;;;;4.40;1.50;;;;;;;9.80;79.72;101268.22;5092102;28;20052;-50
2021/05/19 07:28:15;;;;;;;6.90;1.85;;;;;;;9.96;80.22;101263.00;5091142;28;20105;-49
2021/05/19 07:30:43;;;;;;;5.45;2.03;;;;;;;10.11;80.56;101262.50;5101354;28;20044;-51
2021/05/19 07:33:20;;;;;;;6.57;2.15;;;;;;;10.27;80.78;101266.38;5083435;28;20046;-49
2021/05/19 07:35:46;;;;;;;4.93;1.92;;;;;;;10.48;80.84;101269.25;5070737;28;20048;-52
2021/05/19 07:38:13;;;;;;;3.72;1.55;;;;;;;10.65;80.60;101269.16;5082235;28;20314;-51
2021/05/19 07:40:41;;;;;;;5.25;1.80;;;;;;;10.83;80.83;101267.91;5103368;28;20051;-52
2021/05/19 07:43:08;;;;;;;4.43;1.85;;;;;;;11.05;81.70;101275.94;5091331;28;20551;-49
2021/05/19 07:45:35;;;;;;;6.45;1.70;;;;;;;11.26;82.27;101273.19;5090872;28;20075;-48
2021/05/19 07:48:01;;;;;;;2.80;1.20;;;;;;;11.53;82.13;101272.66;5108844;28;20082;-50
2021/05/19 07:50:27;;;;;;;4.57;1.02;;;;;;;11.79;82.38;101276.06;5103928;28;20046;-48
2021/05/19 07:52:57;;;;;;;5.75;1.25;;;;;;;12.08;82.65;101278.69;5083539;28;20032;-52
2021/05/19 07:55:41;;;;;;;6.55;1.40;;;;;;;12.41;81.39;101284.22;5080116;28;20536;-50
2021/05/19 07:58:19;;;;;;;10.60;2.13;;;;;;;13.02;80.38;101290.63;5093000;28;20830;-48
2021/05/19 08:03:31;;;;;;;3.47;1.20;;;;;;;14.58;74.12;101296.03;5104253;28;20069;-48
2021/05/19 08:05:57;;;;;;;4.00;1.33;;;;;;;15.27;71.87;101294.53;5091771;28;20040;-55
2021/05/19 08:08:23;;;;;;;8.43;2.03;;;;;;;15.90;69.06;101300.72;5090644;28;20035;-51
2021/05/19 08:10:48;;;;;;;3.90;1.15;;;;;;;16.48;66.95;101299.47;5087732;28;20028;-46
2021/05/19 08:13:14;;;;;;;4.35;1.00;;;;;;;16.87;64.80;101300.16;5085581;28;20035;-48
2021/05/19 08:15:39;;;;;;;4.00;1.13;;;;;;;17.49;63.24;101301.53;5090063;28;20024;-49
2021/05/19 08:18:07;;;;;;;5.22;1.10;;;;;;;17.85;61.31;101305.63;5091293;28;20447;-48
2021/05/19 08:20:34;;;;;;;5.30;1.00;;;;;;;18.05;59.33;101318.31;5092544;28;20056;-54
2021/05/19 08:23:01;;;;;;;5.35;1.20;;;;;;;18.29;58.11;101317.81;5093847;28;20564;-46
2021/05/19 08:25:28;;;;;;;7.05;1.10;;;;;;;18.70;57.13;101316.66;5098055;28;20048;-46
2021/05/19 08:27:55;;;;;;;4.05;1.10;;;;;;;19.06;55.51;101309.31;5088118;28;20102;-50
2021/05/19 08:30:23;;;;;;;5.80;1.55;;;;;;;19.31;53.99;101315.13;5071103;28;20040;-51
2021/05/19 08:32:51;;;;;;;1.98;0.95;;;;;;;19.33;52.87;101323.97;5091665;28;20044;-49
2021/05/19 08:35:19;;;;;;;3.38;1.00;;;;;;;19.51;52.25;101327.75;5089793;28;20089;-52
2021/05/19 08:37:46;;;;;;;9.60;1.20;;;;;;;19.55;52.14;101331.38;5098324;28;20488;-49
2021/05/19 08:40:13;;;;;;;4.78;0.88;;;;;;;19.64;50.87;101328.22;5105973;28;20037;-47
2021/05/19 08:42:41;;;;;;;3.88;0.95;;;;;;;19.82;50.18;101329.94;5083991;28;20044;-52
2021/05/19 08:45:11;;;;;;;5.32;1.15;;;;;;;20.08;49.71;101330.81;5071186;28;20105;-46
2021/05/19 08:47:38;;;;;;;4.22;0.95;;;;;;;19.77;49.44;101335.09;5098384;28;20047;-49
2021/05/19 08:50:07;;;;;;;2.08;0.57;;;;;;;19.43;48.89;101346.53;5090116;28;20520;-46
2021/05/19 08:52:38;;;;;;;6.97;1.60;;;;;;;19.31;48.97;101340.41;5100547;28;20554;-47
2021/05/19 08:55:13;;;;;;;3.40;0.93;;;;;;;19.03;48.75;101340.19;5095583;28;20062;-47
2021/05/19 08:57:41;;;;;;;6.30;1.20;;;;;;;18.73;49.06;101340.31;5091792;28;20078;-46
2021/05/19 09:00:09;;;;;;;4.63;1.10;;;;;;;18.87;49.44;101343.25;5099500;28;20421;-48
2021/05/19 09:02:39;;;;;;;3.72;1.10;;;;;;;19.12;48.87;101337.84;5083237;28;20076;-46
2021/05/19 09:05:07;;;;;;;3.67;1.15;;;;;;;19.21;48.47;101327.91;5102820;28;20702;-46
2021/05/19 09:07:36;;;;;;;6.75;1.55;;;;;;;19.71;48.20;101317.00;5090176;28;20135;-51
2021/05/19 09:10:19;;;;;;;1.70;0.77;;;;;;;19.61;46.02;101323.38;5096401;28;20043;-47
2021/05/19 09:12:45;;;;;;;6.15;0.90;;;;;;;18.87;47.20;101331.22;5087781;28;20048;-47
2021/05/19 09:15:15;;;;;;;4.03;1.10;;;;;;;18.84;47.03;101328.00;5083560;28;20052;-52
2021/05/19 09:17:42;;;;;;;3.17;0.77;;;;;;;19.25;47.03;101316.69;5095420;28;20040;-47
2021/05/19 09:20:09;;;;;;;5.88;1.80;;;;;;;19.77;46.31;101312.63;5076112;28;20138;-48
2021/05/19 09:22:39;;;;;;;3.05;0.90;;;;;;;19.54;45.75;101312.88;5087884;28;20047;-48
2021/05/19 09:25:26;;;;;;;2.55;0.85;;;;;;;18.63;44.67;101318.59;5089140;28;20189;-47
2021/05/19 09:27:59;;;;;;;3.40;0.85;;;;;;;17.82;46.71;101334.44;5093371;28;20097;-48
2021/05/19 09:30:48;;;;;;;2.97;0.68;;;;;;;17.21;47.12;101332.69;5100985;28;20083;-47
2021/05/19 09:33:28;;;;;;;5.90;0.60;;;;;;;17.10;47.81;101328.94;5097971;28;20044;-49
2021/05/19 09:36:21;;;;;;;4.03;1.08;;;;;;;17.88;47.09;101328.09;5096312;28;20546;-47
2021/05/19 09:38:53;;;;;;;3.60;1.02;;;;;;;18.02;47.55;101333.91;5099382;28;20146;-47
2021/05/19 09:41:27;;;;;;;4.78;0.88;;;;;;;17.68;46.71;101335.03;5079899;28;20131;-51
2021/05/19 09:43:59;;;;;;;3.78;0.70;;;;;;;16.93;47.71;101337.84;5097043;28;20044;-48
2021/05/19 09:49:19;;;;;;;4.30;1.35;;;;;;;15.69;49.30;101329.00;5088238;28;20040;-52
2021/05/19 09:52:12;;;;;;;4.28;1.33;;;;;;;15.23;51.19;101339.88;5088428;28;20433;-51
2021/05/19 09:54:44;;;;;;;3.10;0.63;;;;;;;14.81;51.33;101344.41;5086651;28;20450;-52
2021/05/19 09:57:17;;;;;;;7.93;1.13;;;;;;;14.69;52.01;101330.56;5077278;28;20044;-50
2021/05/19 09:59:49;;;;;;;10.20;1.67;;;;;;;15.53;51.68;101326.25;5077416;28;20497;-52
2021/05/19 10:02:16;;;;;;;4.22;0.70;;;;;;;16.49;51.26;101328.22;5089401;28;20036;-50
2021/05/19 10:04:49;;;;;;;5.95;1.10;;;;;;;17.21;50.27;101326.31;5099946;28;20123;-47
2021/05/19 10:07:18;;;;;;;3.92;0.50;;;;;;;17.55;48.85;101319.66;5089400;28;20067;-50
2021/05/19 10:09:45;;;;;;;3.72;0.60;;;;;;;17.96;48.42;101331.81;5087786;28;20148;-48
2021/05/19 10:12:13;;;;;;;3.75;0.60;;;;;;;18.40;47.72;101326.31;5068525;28;20117;-53
2021/05/19 10:14:45;;;;;;;3.60;0.80;;;;;;;18.65;47.04;101322.59;5079061;28;20058;-47
2021/05/19 10:17:14;;;;;;;2.65;0.40;;;;;;;18.82;46.29;101327.56;5079516;28;20350;-52
2021/05/19 10:19:51;;;;;;;1.15;0.47;;;;;;;19.09;44.52;101324.59;5098645;28;20075;-47
2021/05/19 10:22:20;;;;;;;3.60;0.65;;;;;;;19.07;45.37;101332.59;5096122;28;20043;-47
2021/05/19 10:24:57;;;;;;;2.50;0.73;;;;;;;18.65;44.58;101328.22;5082843;28;20485;-52
2021/05/19 10:27:25;;;;;;;4.32;0.90;;;;;;;18.04;45.04;101325.09;5071149;28;20515;-47
2021/05/19 10:29:56;;;;;;;4.75;1.48;;;;;;;17.41;45.61;101323.03;5107472;28;20048;-50
2021/05/19 10:32:29;;;;;;;3.28;1.02;;;;;;;17.26;46.36;101335.16;5061517;28;20040;-50
2021/05/19 10:34:58;;;;;;;2.83;0.70;;;;;;;16.99;46.38;101333.56;5072061;28;20056;-47
2021/05/19 10:37:26;;;;;;;3.45;0.68;;;;;;;16.60;46.49;101340.47;5089874;28;20049;-47
2021/05/19 10:40:18;;;;;;;2.80;0.80;;;;;;;16.40;47.06;101326.47;5110221;28;20059;-53
2021/05/19 10:43:00;;;;;;;2.45;1.38;;;;;;;16.51;46.85;101335.06;5096681;28;20050;-50
2021/05/19 10:45:27;;;;;;;3.20;0.70;;;;;;;16.50;47.29;101338.22;5087801;28;20050;-46
2021/05/19 10:47:55;;;;;;;3.72;1.00;;;;;;;16.29;47.57;101345.03;5109442;28;20512;-48
2021/05/19 10:59:02;;;;;;;9.18;1.90;;;;;;;16.43;45.90;101339.72;5093225;28;20045;-47
2021/05/19 11:01:42;;;;;;;2.35;0.60;;;;;;;16.42;45.97;101326.91;5087465;28;20071;-49
2021/05/19 11:04:19;;;;;;;8.50;1.13;;;;;;;16.48;46.30;101326.59;5095477;28;20044;-48
2021/05/19 11:07:01;;;;;;;1.92;0.40;;;;;;;16.66;45.10;101336.16;5081458;28;20148;-52
2021/05/19 11:09:32;;;;;;;;;;;;;;;16.79;44.18;101320.81;5096333;28;20083;-48
2021/05/19 11:12:24;;;;;;;2.67;0.70;;;;;;;16.95;45.22;101325.09;5090085;28;20022;-51
2021/05/19 11:15:02;;;;;;;2.17;0.40;;;;;;;16.81;45.05;101335.25;5071911;28;20848;-48
2021/05/19 11:17:51;;;;;;;1.98;0.50;;;;;;;16.69;44.93;101332.63;5091306;28;20617;-49
2021/05/19 11:20:19;;;;;;;7.03;0.90;;;;;;;16.74;45.60;101326.72;5098920;28;20059;-53
2021/05/19 11:22:47;;;;;;;2.75;0.75;;;;;;;16.79;45.54;101327.22;5077499;28;20139;-49
2021/05/19 11:25:16;;;;;;;2.35;1.23;;;;;;;16.89;45.27;101323.78;5102843;28;20117;-48
2021/05/19 11:27:43;;;;;;;2.05;0.70;;;;;;;16.98;44.93;101329.13;5092060;28;20048;-48
2021/05/19 11:30:28;;;;;;;1.95;0.60;;;;;;;17.13;44.52;101325.38;5100935;28;20171;-53
2021/05/19 11:33:25;;;;;;;2.95;0.57;;;;;;;17.32;43.88;101316.06;5107655;28;20142;-49
2021/05/19 11:35:52;;;;;;;4.07;0.60;;;;;;;17.35;44.70;101332.13;5063252;28;20057;-48
2021/05/19 11:38:20;;;;;;;1.88;0.60;;;;;;;17.52;44.58;101318.41;5072561;28;20488;-51
2021/05/19 11:40:50;;;;;;;5.50;0.40;;;;;;;17.63;44.25;101316.56;5090999;28;20115;-46
2021/05/19 11:43:20;;;;;;;3.15;0.47;;;;;;;17.69;43.76;101319.03;5090981;28;20040;-47
2021/05/19 11:45:56;;;;;;;3.03;0.82;;;;;;;17.79;43.64;101332.38;5090438;28;20044;-50
2021/05/19 11:48:26;;;;;;;2.20;0.52;;;;;;;17.82;43.74;101317.63;5093298;28;20054;-47
2021/05/19 11:51:21;;;;;;;3.58;0.60;;;;;;;17.91;43.21;101312.53;5090584;28;20819;-47
2021/05/19 11:54:01;;;;;;;1.55;0.38;;;;;;;17.91;43.92;101315.31;5094910;28;20059;-47
2021/05/19 11:56:51;;;;;;;2.42;0.50;;;;;;;18.11;43.40;101313.97;5094479;28;20093;-49
2021/05/19 11:59:29;;;;;;;3.28;0.80;;;;;;;18.20;42.44;101311.69;5090356;28;20056;-50